• Join FlightAware (Why Join?)
  • Login
  • US Flag 
06:42AM EDT


 

Airport Tracker/Info


-or-


 

Live Flight TrackerFlight Track Log ✈ TRS423 ✈ 15-May-2013 ✈ KMCO - KPHL

Flight Track Log - Related Links

Times and Time Zones

All times are in EDT time to prevent confusion due to time zone crossing. See the TRS423 flight status page for this flight to view local times or setup timezone preferences in your user account.

Time Position Orientation Groundspeed Altitude Reporting Facility
EDT Latitude Longitude Course Direction KTS MPH feet Rate Location/Type
02:36PM 28.4167 -81.3000 156° South 169 194 500  Level Orlando TRACON
02:36PM 28.3833 -81.2833 156° South 195 224 1,800 1,560 Climbing Orlando TRACON
02:37PM 28.3333 -81.2333 139° Southeast 263 303 3,200 1,980 Climbing Orlando TRACON
02:38PM 28.3667 -81.1667 60° Northeast 278 320 5,800 2,400 Climbing Orlando TRACON
02:40PM 28.4786 -81.1850 352° North 300 345 9,300 1,920 Climbing Jacksonville Center
02:41PM 28.5606 -81.2097 345° North 295 339 10,700 1,320 Climbing Jacksonville Center
02:42PM 28.6547 -81.2436 342° North 317 365 12,000 1,380 Climbing Jacksonville Center
02:43PM 28.7533 -81.2775 343° North 348 400 13,600 1,680 Climbing Jacksonville Center
02:44PM 28.8558 -81.3092 345° North 366 421 15,400 1,800 Climbing Jacksonville Center
02:45PM 28.9608 -81.3431 344° North 380 437 17,200 1,500 Climbing Jacksonville Center
02:46PM 29.0656 -81.3792 343° North 385 443 18,500 1,620 Climbing Jacksonville Center
02:47PM 29.1806 -81.3989 351° North 390 449 20,500 1,860 Climbing Jacksonville Center
02:48PM 29.2933 -81.4117 354° North 406 467 22,200 1,680 Climbing Jacksonville Center
02:49PM 29.4106 -81.4217 356° North 411 473 24,000 1,620 Climbing Jacksonville Center
02:50PM 29.5294 -81.4342 355° North 417 480 25,500 1,380 Climbing Jacksonville Center
02:51PM 29.6486 -81.4444 356° North 422 486 26,800 1,200 Climbing Jacksonville Center
02:52PM 29.7700 -81.4569 355° North 428 493 28,000 1,440 Climbing Jacksonville Center
02:53PM 29.8911 -81.4672 356° North 433 498 29,700 1,620 Climbing Jacksonville Center
02:54PM 30.0081 -81.4797 355° North 427 491 31,300 1,320 Climbing Jacksonville Center
02:55PM 30.1272 -81.4900 356° North 422 486 32,400 840 Climbing Jacksonville Center
02:56PM 30.2444 -81.5028 355° North 422 486 33,000 300 Climbing Jacksonville Center
02:57PM 30.3614 -81.5108 357° North 422 486 33,000  Level Jacksonville Center
02:58PM 30.4803 -81.4994 North 422 486 33,000  Level Jacksonville Center
02:59PM 30.5992 -81.4903 North 422 486 33,000  Level Jacksonville Center
03:00PM 30.7075 -81.4817 North 427 491 33,000  Level Jacksonville Center
03:01PM 30.8286 -81.4725 North 427 491 33,000  Level Jacksonville Center
03:02PM 30.9475 -81.4633 North 427 491 33,000  Level Jacksonville Center
03:03PM 31.0686 -81.4544 North 427 491 33,000  Level Jacksonville Center
03:04PM 31.1894 -81.4428 North 422 486 33,000  Level Jacksonville Center
03:05PM 31.3103 -81.4239 North 422 486 33,000  Level Jacksonville Center
03:06PM 31.4267 -81.3831 17° North 427 491 33,000  Level Jacksonville Center
03:07PM 31.5469 -81.3056 29° Northeast 444 511 33,000  Level Jacksonville Center
03:08PM 31.6544 -81.2281 32° Northeast 445 512 33,000  Level Jacksonville Center
03:09PM 31.7539 -81.1578 31° Northeast 450 518 33,000  Level Jacksonville Center
03:10PM 31.8717 -81.0750 31° Northeast 445 512 33,000  Level Jacksonville Center
03:11PM 31.9686 -81.0044 32° Northeast 451 519 33,000  Level Jacksonville Center
03:12PM 32.0886 -80.9211 30° Northeast 451 519 33,000  Level Jacksonville Center
03:13PM 32.1958 -80.8450 31° Northeast 444 511 33,000  Level Jacksonville Center
03:14PM 32.2928 -80.7742 32° Northeast 443 510 33,000  Level Jacksonville Center
03:15PM 32.3981 -80.6953 32° Northeast 443 510 33,000  Level Jacksonville Center
03:16PM 32.5053 -80.6164 32° Northeast 443 510 33,000  Level Jacksonville Center
03:17PM 32.6014 -80.5203 40° Northeast 448 516 33,000  Level Jacksonville Center
03:18PM 32.6975 -80.4167 42° Northeast 448 516 33,000  Level Jacksonville Center
03:19PM 32.7936 -80.3128 42° Northeast 454 522 33,000  Level Jacksonville Center
03:20PM 32.8875 -80.2086 43° Northeast 459 528 33,000  Level Jacksonville Center
03:21PM 32.9978 -80.0939 41° Northeast 478 550 33,000  Level Jacksonville Center
03:22PM 33.0833 -79.9969 44° Northeast 473 544 33,000  Level Jacksonville Center
03:23PM 33.1892 -79.8867 41° Northeast 468 539 33,000  Level Jacksonville Center
03:24PM 33.2867 -79.7792 43° Northeast 463 533 33,000  Level Jacksonville Center
03:25PM 33.3822 -79.6764 42° Northeast 463 533 33,000  Level Jacksonville Center
03:26PM 33.4797 -79.5706 42° Northeast 463 533 33,000  Level Jacksonville Center
03:27PM 33.5750 -79.4650 43° Northeast 463 533 33,000  Level Jacksonville Center
03:28PM 33.6700 -79.3589 43° Northeast 463 533 33,000  Level Jacksonville Center
03:29PM 33.7550 -79.2631 43° Northeast 463 533 33,000  Level Jacksonville Center
03:30PM 33.9250 -79.0756 42° Northeast 462 532 33,000  Level Washington Center
03:31PM 34.0219 -78.9667 43° Northeast 462 532 33,000  Level Washington Center
03:32PM 34.1211 -78.8581 42° Northeast 462 532 33,000  Level Washington Center
03:33PM 34.2219 -78.7489 42° Northeast 467 537 33,000  Level Washington Center
03:34PM 34.3186 -78.6419 42° Northeast 467 537 33,000  Level Washington Center
03:35PM 34.4214 -78.5350 41° Northeast 473 544 33,000  Level Washington Center
03:36PM 34.5028 -78.4522 40° Northeast 478 550 33,000  Level Washington Center
03:37PM 34.6117 -78.3425 40° Northeast 473 544 33,000  Level Washington Center
03:38PM 34.7142 -78.2400 39° Northeast 468 539 33,000  Level Washington Center
03:39PM 34.8231 -78.1244 41° Northeast 468 539 33,000  Level Washington Center
03:40PM 34.9028 -78.0006 52° Northeast 460 529 33,000  Level Washington Center
03:41PM 34.9247 -77.8414 80° East 450 518 33,000  Level Washington Center
03:42PM 34.9692 -77.7008 69° East 450 518 33,000  Level Washington Center
03:43PM 35.0728 -77.6147 34° Northeast 432 497 33,000  Level Washington Center
03:44PM 35.1847 -77.5386 29° Northeast 431 496 33,000  Level Washington Center
03:45PM 35.3006 -77.4600 29° Northeast 452 520 33,000  Level Washington Center
03:46PM 35.4125 -77.3811 30° Northeast 462 532 33,000  Level Washington Center
03:47PM 35.5261 -77.3044 29° Northeast 462 532 33,000  Level Washington Center
03:48PM 35.6400 -77.2253 29° Northeast 462 532 33,000  Level Washington Center
03:49PM 35.7539 -77.1431 30° Northeast 462 532 33,000  Level Washington Center
03:50PM 35.8528 -77.0706 31° Northeast 461 531 33,000 -60 Level Washington Center
03:51PM 35.9683 -76.9933 28° Northeast 461 531 32,900 -660 Descending Washington Center
03:52PM 36.0800 -76.9106 31° Northeast 466 536 31,700 -1,140 Descending Washington Center
03:53PM 36.1956 -76.8300 29° Northeast 466 536 30,700 -1,080 Descending Washington Center
03:54PM 36.3111 -76.7467 30° Northeast 466 536 29,600 -960 Descending Washington Center
03:55PM 36.4267 -76.6658 29° Northeast 466 536 28,900 -300 Descending Washington Center
03:56PM 36.5358 -76.5872 30° Northeast 461 531 29,000  Climbing Washington Center
03:57PM 36.6469 -76.5083 30° Northeast 461 531 29,000  Level Washington Center
03:58PM 36.7667 -76.4189 31° Northeast 461 531 29,000  Level Washington Center
03:59PM 36.8756 -76.3372 31° Northeast 456 525 29,000  Level Washington Center
04:00PM 36.9761 -76.2653 30° Northeast 456 525 29,000  Level Washington Center
04:01PM 37.0872 -76.1856 30° Northeast 451 519 29,000  Level Washington Center
04:02PM 37.2106 -76.1003 29° Northeast 451 519 29,000 -420 Level Washington Center
04:03PM 37.3214 -76.0203 30° Northeast 456 525 28,200 -1,080 Descending Washington Center
04:05PM 37.4281 -75.9397 31° Northeast 451 519 26,900 -1,380 Descending Washington Center
04:05PM 37.5306 -75.8617 31° Northeast 440 506 25,600 -1,020 Descending Washington Center
04:06PM 37.6369 -75.7833 30° Northeast 440 506 25,000 -300 Descending Washington Center
04:07PM 37.7392 -75.7100 30° Northeast 435 501 25,000  Level Washington Center
04:08PM 37.8436 -75.6286 32° Northeast 430 495 25,000 -120 Level Washington Center
04:09PM 37.9458 -75.5497 31° Northeast 430 495 24,800 -480 Descending Washington Center
04:10PM 38.0522 -75.4758 29° Northeast 425 489 24,100 -780 Descending Washington Center
04:11PM 38.1564 -75.4042 28° Northeast 425 489 23,300 -840 Descending Washington Center
04:12PM 38.2625 -75.3406 25° Northeast 420 483 22,500 -780 Descending Washington Center
04:13PM 38.3644 -75.2739 27° Northeast 410 472 21,800 -1,380 Descending Washington Center
04:14PM 38.4664 -75.2097 26° Northeast 405 466 19,800 -2,400 Descending Washington Center
04:15PM 38.5642 -75.1431 28° Northeast 405 466 17,100 -2,340 Descending Washington Center
04:17PM 38.6600 -75.0839 26° Northeast 393 452 15,100 -1,140 Descending Washington Center
04:17PM 38.7556 -75.0192 28° Northeast 382 440 14,900  Descending Washington Center
04:18PM 38.8492 -74.9600 26° Northeast 375 432 15,100 60 Climbing Washington Center
04:19PM 38.9425 -74.9031 25° Northeast 375 432 15,100 -300 Level Washington Center
04:20PM 39.0383 -74.8967 North 353 406 14,500 -1,320 Descending Washington Center
04:22PM 39.2167 -74.9167 355° North 333 383 11,300 -1,380 Descending Philadelphia TRACON
04:23PM 39.3000 -74.9333 351° North 262 302 10,600 -1,200 Descending Philadelphia TRACON
04:24PM 39.3667 -74.9500 349° North 251 289 9,100 -900 Descending Philadelphia TRACON
04:25PM 39.4333 -74.9500 360° North 257 296 8,900 -780 Descending Philadelphia TRACON
04:26PM 39.5000 -74.9667 349° North 258 297 7,600 -1,260 Descending Philadelphia TRACON
04:27PM 39.5833 -75.0000 343° North 254 292 6,300 -900 Descending Philadelphia TRACON
04:28PM 39.6333 -75.0500 322° Northwest 257 296 5,900 -240 Descending Philadelphia TRACON
04:29PM 39.7000 -75.0667 349° North 278 320 5,900  Level Philadelphia TRACON
04:30PM 39.7667 -75.0833 349° North 201 231 5,900  Level Philadelphia TRACON
04:31PM 39.8167 -75.0500 27° Northeast 241 277 5,900 -300 Level Philadelphia TRACON
04:32PM 39.8333 -74.9667 75° East 243 280 5,300 -720 Descending Philadelphia TRACON
04:34PM 39.8571 -75.1334 281° West  Level Estimated
04:34PM 39.8667 -74.8167 281° West 234 269 3,900  Level Philadelphia TRACON
04:35PM 39.9167 -74.8167 360° North 184 212 3,900  Level Philadelphia TRACON
04:36PM 39.9500 -74.8667 311° West 175 201 3,900  Level Philadelphia TRACON
04:37PM 39.9333 -74.9333 252° West 157 181 3,900 -120 Level Philadelphia TRACON
04:38PM 39.9167 -74.9833 247° West 163 188 3,700 -600 Descending Philadelphia TRACON
04:39PM 39.9167 -75.0500 270° West 161 185 2,700 -900 Descending Philadelphia TRACON
04:40PM 39.9000 -75.1000 247° West 159 183 1,900 -780 Descending Philadelphia TRACON
04:41PM 39.8833 -75.1500 247° West 124 143 1,200 -720 Descending Philadelphia TRACON
04:42PM 39.8833 -75.2000 270° West 133 153 400 -780 Descending Philadelphia TRACON